sensor_id;sensor_type;location;lat;lon;timestamp;P1;durP1;ratioP1;P2;durP2;ratioP2
15273;SDS011;7738;49.532;11.156;2022-10-31T00:01:44;8.52;;;4.93;;
15273;SDS011;7738;49.532;11.156;2022-10-31T00:04:14;8.23;;;4.97;;
15273;SDS011;7738;49.532;11.156;2022-10-31T00:06:45;9.55;;;5.03;;
15273;SDS011;7738;49.532;11.156;2022-10-31T00:09:17;10.13;;;4.82;;
15273;SDS011;7738;49.532;11.156;2022-10-31T00:11:47;9.40;;;4.75;;
15273;SDS011;7738;49.532;11.156;2022-10-31T00:14:17;7.97;;;4.43;;
15273;SDS011;7738;49.532;11.156;2022-10-31T00:16:47;10.32;;;4.90;;
15273;SDS011;7738;49.532;11.156;2022-10-31T00:19:17;8.27;;;5.03;;
15273;SDS011;7738;49.532;11.156;2022-10-31T00:21:47;9.45;;;5.53;;
15273;SDS011;7738;49.532;11.156;2022-10-31T00:24:20;7.00;;;4.85;;
15273;SDS011;7738;49.532;11.156;2022-10-31T00:26:50;7.53;;;4.72;;
15273;SDS011;7738;49.532;11.156;2022-10-31T00:29:20;10.75;;;4.88;;
15273;SDS011;7738;49.532;11.156;2022-10-31T00:31:51;10.30;;;4.65;;
15273;SDS011;7738;49.532;11.156;2022-10-31T00:34:21;9.15;;;4.45;;
15273;SDS011;7738;49.532;11.156;2022-10-31T00:36:51;9.65;;;4.93;;
15273;SDS011;7738;49.532;11.156;2022-10-31T00:39:24;6.55;;;4.05;;
15273;SDS011;7738;49.532;11.156;2022-10-31T00:41:54;9.57;;;4.63;;
15273;SDS011;7738;49.532;11.156;2022-10-31T00:44:24;9.43;;;4.93;;
15273;SDS011;7738;49.532;11.156;2022-10-31T00:46:54;8.85;;;4.82;;
15273;SDS011;7738;49.532;11.156;2022-10-31T00:49:24;8.23;;;4.88;;
15273;SDS011;7738;49.532;11.156;2022-10-31T00:51:55;7.63;;;5.40;;
15273;SDS011;7738;49.532;11.156;2022-10-31T00:54:27;7.18;;;4.45;;
15273;SDS011;7738;49.532;11.156;2022-10-31T00:56:57;8.27;;;5.63;;
15273;SDS011;7738;49.532;11.156;2022-10-31T00:59:27;8.50;;;6.20;;
15273;SDS011;7738;49.532;11.156;2022-10-31T01:01:58;9.98;;;5.65;;
15273;SDS011;7738;49.532;11.156;2022-10-31T01:04:28;8.65;;;5.30;;
15273;SDS011;7738;49.532;11.156;2022-10-31T01:06:58;9.05;;;5.88;;
15273;SDS011;7738;49.532;11.156;2022-10-31T01:09:31;11.98;;;6.00;;
15273;SDS011;7738;49.532;11.156;2022-10-31T01:12:02;13.73;;;6.73;;
15273;SDS011;7738;49.532;11.156;2022-10-31T01:14:32;16.35;;;6.50;;
15273;SDS011;7738;49.532;11.156;2022-10-31T01:17:02;8.68;;;4.78;;
15273;SDS011;7738;49.532;11.156;2022-10-31T01:19:33;17.52;;;6.15;;
15273;SDS011;7738;49.532;11.156;2022-10-31T01:22:03;9.77;;;5.68;;
15273;SDS011;7738;49.532;11.156;2022-10-31T01:24:36;9.65;;;5.28;;
15273;SDS011;7738;49.532;11.156;2022-10-31T01:27:06;9.07;;;5.50;;
15273;SDS011;7738;49.532;11.156;2022-10-31T01:29:36;13.82;;;6.60;;
15273;SDS011;7738;49.532;11.156;2022-10-31T01:32:06;11.55;;;6.28;;
15273;SDS011;7738;49.532;11.156;2022-10-31T01:34:36;12.43;;;6.38;;
15273;SDS011;7738;49.532;11.156;2022-10-31T01:37:06;9.70;;;5.90;;
15273;SDS011;7738;49.532;11.156;2022-10-31T01:39:39;10.75;;;5.97;;
15273;SDS011;7738;49.532;11.156;2022-10-31T01:42:09;10.85;;;6.60;;
15273;SDS011;7738;49.532;11.156;2022-10-31T01:44:50;14.20;;;6.97;;
15273;SDS011;7738;49.532;11.156;2022-10-31T01:47:33;12.90;;;7.53;;
15273;SDS011;7738;49.532;11.156;2022-10-31T01:50:16;13.80;;;7.03;;
15273;SDS011;7738;49.532;11.156;2022-10-31T01:52:56;10.30;;;6.35;;
15273;SDS011;7738;49.532;11.156;2022-10-31T01:55:31;9.70;;;5.38;;
15273;SDS011;7738;49.532;11.156;2022-10-31T01:58:04;12.20;;;5.72;;
15273;SDS011;7738;49.532;11.156;2022-10-31T02:00:38;8.43;;;5.70;;
15273;SDS011;7738;49.532;11.156;2022-10-31T02:03:10;14.18;;;6.53;;
15273;SDS011;7738;49.532;11.156;2022-10-31T02:05:41;11.07;;;6.75;;
15273;SDS011;7738;49.532;11.156;2022-10-31T02:08:13;10.82;;;5.57;;
15273;SDS011;7738;49.532;11.156;2022-10-31T02:10:51;14.00;;;5.32;;
15273;SDS011;7738;49.532;11.156;2022-10-31T02:13:22;9.88;;;5.75;;
15273;SDS011;7738;49.532;11.156;2022-10-31T02:15:55;10.65;;;7.43;;
15273;SDS011;7738;49.532;11.156;2022-10-31T02:18:28;12.40;;;7.33;;
15273;SDS011;7738;49.532;11.156;2022-10-31T02:21:02;12.48;;;6.35;;
15273;SDS011;7738;49.532;11.156;2022-10-31T02:23:45;10.85;;;6.10;;
15273;SDS011;7738;49.532;11.156;2022-10-31T02:32:46;8.02;;;4.78;;
15273;SDS011;7738;49.532;11.156;2022-10-31T02:35:27;9.68;;;5.57;;
15273;SDS011;7738;49.532;11.156;2022-10-31T02:38:12;10.55;;;5.75;;
15273;SDS011;7738;49.532;11.156;2022-10-31T02:40:51;8.68;;;5.15;;
15273;SDS011;7738;49.532;11.156;2022-10-31T02:43:35;8.77;;;5.07;;
15273;SDS011;7738;49.532;11.156;2022-10-31T02:46:10;11.00;;;4.63;;
15273;SDS011;7738;49.532;11.156;2022-10-31T02:48:48;8.70;;;5.70;;
15273;SDS011;7738;49.532;11.156;2022-10-31T02:51:23;5.68;;;4.15;;
15273;SDS011;7738;49.532;11.156;2022-10-31T02:53:53;5.63;;;4.07;;
15273;SDS011;7738;49.532;11.156;2022-10-31T02:56:23;11.18;;;5.70;;
15273;SDS011;7738;49.532;11.156;2022-10-31T02:58:56;8.70;;;5.32;;
15273;SDS011;7738;49.532;11.156;2022-10-31T03:01:39;9.73;;;5.45;;
15273;SDS011;7738;49.532;11.156;2022-10-31T03:07:20;8.93;;;5.30;;
15273;SDS011;7738;49.532;11.156;2022-10-31T03:10:00;10.50;;;5.43;;
15273;SDS011;7738;49.532;11.156;2022-10-31T03:12:38;7.63;;;4.88;;
15273;SDS011;7738;49.532;11.156;2022-10-31T03:15:17;9.13;;;5.85;;
15273;SDS011;7738;49.532;11.156;2022-10-31T03:17:53;10.15;;;6.68;;
15273;SDS011;7738;49.532;11.156;2022-10-31T03:20:39;11.30;;;6.45;;
15273;SDS011;7738;49.532;11.156;2022-10-31T03:23:12;12.30;;;6.65;;
15273;SDS011;7738;49.532;11.156;2022-10-31T03:25:48;14.43;;;6.20;;
15273;SDS011;7738;49.532;11.156;2022-10-31T03:28:27;7.70;;;6.25;;
15273;SDS011;7738;49.532;11.156;2022-10-31T03:31:03;9.75;;;6.18;;
15273;SDS011;7738;49.532;11.156;2022-10-31T03:33:37;11.32;;;6.53;;
15273;SDS011;7738;49.532;11.156;2022-10-31T03:36:12;13.63;;;6.53;;
15273;SDS011;7738;49.532;11.156;2022-10-31T03:38:45;14.98;;;6.38;;
15273;SDS011;7738;49.532;11.156;2022-10-31T03:41:18;16.63;;;6.40;;
15273;SDS011;7738;49.532;11.156;2022-10-31T03:43:52;11.23;;;5.95;;
15273;SDS011;7738;49.532;11.156;2022-10-31T03:46:27;12.48;;;6.35;;
15273;SDS011;7738;49.532;11.156;2022-10-31T03:48:58;11.57;;;6.15;;
15273;SDS011;7738;49.532;11.156;2022-10-31T03:51:32;11.00;;;6.45;;
15273;SDS011;7738;49.532;11.156;2022-10-31T03:54:09;9.77;;;6.63;;
15273;SDS011;7738;49.532;11.156;2022-10-31T03:56:46;12.23;;;5.05;;
15273;SDS011;7738;49.532;11.156;2022-10-31T03:59:23;12.45;;;4.93;;
15273;SDS011;7738;49.532;11.156;2022-10-31T04:01:56;5.47;;;4.18;;
15273;SDS011;7738;49.532;11.156;2022-10-31T04:07:02;5.47;;;3.75;;
15273;SDS011;7738;49.532;11.156;2022-10-31T04:09:35;6.80;;;3.28;;
15273;SDS011;7738;49.532;11.156;2022-10-31T04:12:11;4.95;;;3.95;;
15273;SDS011;7738;49.532;11.156;2022-10-31T04:14:43;4.13;;;3.38;;
15273;SDS011;7738;49.532;11.156;2022-10-31T04:17:17;6.38;;;3.65;;
15273;SDS011;7738;49.532;11.156;2022-10-31T04:19:50;5.78;;;3.60;;
15273;SDS011;7738;49.532;11.156;2022-10-31T04:22:22;6.10;;;4.18;;
15273;SDS011;7738;49.532;11.156;2022-10-31T04:24:52;8.30;;;4.38;;
15273;SDS011;7738;49.532;11.156;2022-10-31T04:27:23;8.52;;;4.90;;
15273;SDS011;7738;49.532;11.156;2022-10-31T04:29:53;14.35;;;5.93;;
15273;SDS011;7738;49.532;11.156;2022-10-31T04:32:23;11.98;;;6.72;;
15273;SDS011;7738;49.532;11.156;2022-10-31T04:34:54;7.18;;;5.85;;
15273;SDS011;7738;49.532;11.156;2022-10-31T04:37:27;8.77;;;5.00;;
15273;SDS011;7738;49.532;11.156;2022-10-31T04:39:58;10.80;;;5.68;;
15273;SDS011;7738;49.532;11.156;2022-10-31T04:42:37;8.85;;;4.47;;
15273;SDS011;7738;49.532;11.156;2022-10-31T04:45:08;8.38;;;5.18;;
15273;SDS011;7738;49.532;11.156;2022-10-31T04:47:47;8.38;;;5.28;;
15273;SDS011;7738;49.532;11.156;2022-10-31T04:50:17;5.22;;;4.25;;
15273;SDS011;7738;49.532;11.156;2022-10-31T04:52:50;10.88;;;4.57;;
15273;SDS011;7738;49.532;11.156;2022-10-31T04:55:25;8.35;;;5.13;;
15273;SDS011;7738;49.532;11.156;2022-10-31T04:58:14;10.70;;;5.40;;
15273;SDS011;7738;49.532;11.156;2022-10-31T05:00:44;10.73;;;5.60;;
15273;SDS011;7738;49.532;11.156;2022-10-31T05:03:15;9.27;;;5.35;;
15273;SDS011;7738;49.532;11.156;2022-10-31T05:05:45;8.48;;;5.85;;
15273;SDS011;7738;49.532;11.156;2022-10-31T05:08:19;11.15;;;6.13;;
15273;SDS011;7738;49.532;11.156;2022-10-31T05:10:51;8.95;;;5.70;;
15273;SDS011;7738;49.532;11.156;2022-10-31T05:13:26;9.10;;;5.65;;
15273;SDS011;7738;49.532;11.156;2022-10-31T05:16:31;11.95;;;6.82;;
15273;SDS011;7738;49.532;11.156;2022-10-31T05:19:01;9.73;;;6.32;;
15273;SDS011;7738;49.532;11.156;2022-10-31T05:21:50;10.02;;;6.70;;
15273;SDS011;7738;49.532;11.156;2022-10-31T05:24:23;8.10;;;5.22;;
15273;SDS011;7738;49.532;11.156;2022-10-31T05:26:57;10.25;;;6.80;;
15273;SDS011;7738;49.532;11.156;2022-10-31T05:29:26;9.82;;;6.03;;
15273;SDS011;7738;49.532;11.156;2022-10-31T05:32:00;15.43;;;7.13;;
15273;SDS011;7738;49.532;11.156;2022-10-31T05:34:53;12.75;;;6.40;;
15273;SDS011;7738;49.532;11.156;2022-10-31T05:37:52;11.80;;;7.03;;
15273;SDS011;7738;49.532;11.156;2022-10-31T05:40:26;11.95;;;6.70;;
15273;SDS011;7738;49.532;11.156;2022-10-31T05:42:58;13.60;;;7.35;;
15273;SDS011;7738;49.532;11.156;2022-10-31T05:45:30;6.32;;;4.93;;
15273;SDS011;7738;49.532;11.156;2022-10-31T05:48:04;9.52;;;6.30;;
15273;SDS011;7738;49.532;11.156;2022-10-31T05:51:03;9.93;;;5.05;;
15273;SDS011;7738;49.532;11.156;2022-10-31T05:53:34;13.25;;;6.00;;
15273;SDS011;7738;49.532;11.156;2022-10-31T05:56:07;9.85;;;5.40;;
15273;SDS011;7738;49.532;11.156;2022-10-31T05:58:38;9.05;;;5.00;;
15273;SDS011;7738;49.532;11.156;2022-10-31T06:01:09;5.78;;;4.13;;
15273;SDS011;7738;49.532;11.156;2022-10-31T06:03:39;8.43;;;5.28;;
15273;SDS011;7738;49.532;11.156;2022-10-31T06:06:09;6.60;;;5.28;;
15273;SDS011;7738;49.532;11.156;2022-10-31T06:08:40;9.45;;;5.10;;
15273;SDS011;7738;49.532;11.156;2022-10-31T06:11:20;7.35;;;5.63;;
15273;SDS011;7738;49.532;11.156;2022-10-31T06:14:02;9.20;;;6.00;;
15273;SDS011;7738;49.532;11.156;2022-10-31T06:16:46;7.57;;;5.37;;
15273;SDS011;7738;49.532;11.156;2022-10-31T06:19:34;7.65;;;5.40;;
15273;SDS011;7738;49.532;11.156;2022-10-31T06:22:05;10.02;;;6.20;;
15273;SDS011;7738;49.532;11.156;2022-10-31T06:24:38;11.48;;;6.70;;
15273;SDS011;7738;49.532;11.156;2022-10-31T06:27:27;9.40;;;5.88;;
15273;SDS011;7738;49.532;11.156;2022-10-31T06:30:02;10.98;;;6.80;;
15273;SDS011;7738;49.532;11.156;2022-10-31T06:32:35;13.13;;;6.28;;
15273;SDS011;7738;49.532;11.156;2022-10-31T06:35:08;9.63;;;5.45;;
15273;SDS011;7738;49.532;11.156;2022-10-31T06:37:39;13.35;;;7.40;;
15273;SDS011;7738;49.532;11.156;2022-10-31T06:40:26;10.18;;;7.30;;
15273;SDS011;7738;49.532;11.156;2022-10-31T06:43:16;10.35;;;7.70;;
15273;SDS011;7738;49.532;11.156;2022-10-31T06:45:47;8.13;;;5.63;;
15273;SDS011;7738;49.532;11.156;2022-10-31T06:48:19;7.85;;;6.00;;
15273;SDS011;7738;49.532;11.156;2022-10-31T06:51:09;8.85;;;4.70;;
15273;SDS011;7738;49.532;11.156;2022-10-31T06:53:39;7.70;;;5.65;;
15273;SDS011;7738;49.532;11.156;2022-10-31T06:56:11;9.93;;;5.75;;
15273;SDS011;7738;49.532;11.156;2022-10-31T06:58:51;9.70;;;5.47;;
15273;SDS011;7738;49.532;11.156;2022-10-31T07:01:39;10.48;;;6.03;;
15273;SDS011;7738;49.532;11.156;2022-10-31T07:04:10;11.88;;;7.13;;
15273;SDS011;7738;49.532;11.156;2022-10-31T07:06:40;10.98;;;5.95;;
15273;SDS011;7738;49.532;11.156;2022-10-31T07:09:17;11.00;;;7.15;;
15273;SDS011;7738;49.532;11.156;2022-10-31T07:11:48;13.63;;;7.45;;
15273;SDS011;7738;49.532;11.156;2022-10-31T07:14:20;11.32;;;7.18;;
15273;SDS011;7738;49.532;11.156;2022-10-31T07:16:52;13.85;;;7.72;;
15273;SDS011;7738;49.532;11.156;2022-10-31T07:19:29;12.98;;;8.02;;
15273;SDS011;7738;49.532;11.156;2022-10-31T07:21:59;13.48;;;7.72;;
15273;SDS011;7738;49.532;11.156;2022-10-31T07:24:30;17.38;;;9.65;;
15273;SDS011;7738;49.532;11.156;2022-10-31T07:27:20;12.13;;;9.10;;
15273;SDS011;7738;49.532;11.156;2022-10-31T07:29:54;17.95;;;8.82;;
15273;SDS011;7738;49.532;11.156;2022-10-31T07:32:25;16.90;;;9.07;;
15273;SDS011;7738;49.532;11.156;2022-10-31T07:34:56;17.48;;;9.02;;
15273;SDS011;7738;49.532;11.156;2022-10-31T07:37:43;15.48;;;8.35;;
15273;SDS011;7738;49.532;11.156;2022-10-31T07:40:15;15.50;;;8.82;;
15273;SDS011;7738;49.532;11.156;2022-10-31T07:42:46;16.23;;;8.50;;
15273;SDS011;7738;49.532;11.156;2022-10-31T07:45:38;15.63;;;8.10;;
15273;SDS011;7738;49.532;11.156;2022-10-31T07:48:27;11.15;;;8.57;;
15273;SDS011;7738;49.532;11.156;2022-10-31T07:51:16;11.35;;;8.82;;
15273;SDS011;7738;49.532;11.156;2022-10-31T07:54:06;14.98;;;8.27;;
15273;SDS011;7738;49.532;11.156;2022-10-31T07:56:37;16.85;;;8.75;;
15273;SDS011;7738;49.532;11.156;2022-10-31T07:59:08;16.65;;;9.10;;
15273;SDS011;7738;49.532;11.156;2022-10-31T08:01:41;13.40;;;7.55;;
15273;SDS011;7738;49.532;11.156;2022-10-31T08:04:31;15.00;;;7.93;;
15273;SDS011;7738;49.532;11.156;2022-10-31T08:07:21;18.73;;;8.27;;
15273;SDS011;7738;49.532;11.156;2022-10-31T08:09:58;10.82;;;8.20;;
15273;SDS011;7738;49.532;11.156;2022-10-31T08:12:30;13.57;;;9.18;;
15273;SDS011;7738;49.532;11.156;2022-10-31T08:15:01;14.70;;;8.68;;
15273;SDS011;7738;49.532;11.156;2022-10-31T08:17:37;13.65;;;8.95;;
15273;SDS011;7738;49.532;11.156;2022-10-31T08:20:09;17.17;;;8.70;;
15273;SDS011;7738;49.532;11.156;2022-10-31T08:22:52;15.98;;;9.02;;
15273;SDS011;7738;49.532;11.156;2022-10-31T08:25:23;12.93;;;8.07;;
15273;SDS011;7738;49.532;11.156;2022-10-31T08:27:59;15.70;;;9.60;;
15273;SDS011;7738;49.532;11.156;2022-10-31T08:30:30;16.17;;;8.65;;
15273;SDS011;7738;49.532;11.156;2022-10-31T08:33:23;13.55;;;9.13;;
15273;SDS011;7738;49.532;11.156;2022-10-31T08:36:11;14.45;;;8.15;;
15273;SDS011;7738;49.532;11.156;2022-10-31T08:39:13;15.75;;;8.50;;
15273;SDS011;7738;49.532;11.156;2022-10-31T08:41:44;12.25;;;7.47;;
15273;SDS011;7738;49.532;11.156;2022-10-31T08:44:15;12.77;;;7.55;;
15273;SDS011;7738;49.532;11.156;2022-10-31T08:46:47;13.85;;;7.63;;
15273;SDS011;7738;49.532;11.156;2022-10-31T08:49:23;9.05;;;6.18;;
15273;SDS011;7738;49.532;11.156;2022-10-31T08:51:53;10.93;;;5.85;;
15273;SDS011;7738;49.532;11.156;2022-10-31T08:54:29;9.68;;;6.15;;
15273;SDS011;7738;49.532;11.156;2022-10-31T08:57:19;11.13;;;6.72;;
15273;SDS011;7738;49.532;11.156;2022-10-31T08:59:49;11.07;;;5.80;;
15273;SDS011;7738;49.532;11.156;2022-10-31T09:02:23;12.80;;;6.32;;
15273;SDS011;7738;49.532;11.156;2022-10-31T09:07:30;10.40;;;5.00;;
15273;SDS011;7738;49.532;11.156;2022-10-31T09:10:00;7.28;;;5.15;;
15273;SDS011;7738;49.532;11.156;2022-10-31T09:12:33;10.75;;;5.65;;
15273;SDS011;7738;49.532;11.156;2022-10-31T09:15:39;18.33;;;5.38;;
15273;SDS011;7738;49.532;11.156;2022-10-31T09:18:20;10.13;;;5.28;;
15273;SDS011;7738;49.532;11.156;2022-10-31T09:20:59;10.48;;;4.85;;
15273;SDS011;7738;49.532;11.156;2022-10-31T09:23:30;10.70;;;4.68;;
15273;SDS011;7738;49.532;11.156;2022-10-31T09:26:00;7.53;;;4.30;;
15273;SDS011;7738;49.532;11.156;2022-10-31T09:28:36;7.53;;;5.00;;
15273;SDS011;7738;49.532;11.156;2022-10-31T09:31:08;11.07;;;4.63;;
15273;SDS011;7738;49.532;11.156;2022-10-31T09:33:44;8.30;;;4.68;;
15273;SDS011;7738;49.532;11.156;2022-10-31T09:36:36;8.23;;;3.97;;
15273;SDS011;7738;49.532;11.156;2022-10-31T09:39:11;5.15;;;3.85;;
15273;SDS011;7738;49.532;11.156;2022-10-31T09:41:48;8.18;;;4.18;;
15273;SDS011;7738;49.532;11.156;2022-10-31T09:44:30;9.38;;;4.13;;
15273;SDS011;7738;49.532;11.156;2022-10-31T09:47:14;6.88;;;3.30;;
15273;SDS011;7738;49.532;11.156;2022-10-31T09:50:12;8.18;;;3.80;;
15273;SDS011;7738;49.532;11.156;2022-10-31T09:52:51;7.32;;;3.33;;
15273;SDS011;7738;49.532;11.156;2022-10-31T09:55:31;6.95;;;3.47;;
15273;SDS011;7738;49.532;11.156;2022-10-31T09:58:05;6.57;;;3.72;;
15273;SDS011;7738;49.532;11.156;2022-10-31T10:00:43;4.45;;;3.30;;
15273;SDS011;7738;49.532;11.156;2022-10-31T10:03:18;10.38;;;3.15;;
15273;SDS011;7738;49.532;11.156;2022-10-31T10:06:02;9.35;;;3.42;;
15273;SDS011;7738;49.532;11.156;2022-10-31T10:09:01;4.88;;;3.35;;
15273;SDS011;7738;49.532;11.156;2022-10-31T10:12:04;7.78;;;2.88;;
15273;SDS011;7738;49.532;11.156;2022-10-31T10:17:43;4.35;;;2.20;;
15273;SDS011;7738;49.532;11.156;2022-10-31T10:20:25;5.85;;;2.25;;
15273;SDS011;7738;49.532;11.156;2022-10-31T10:23:22;8.15;;;3.25;;
15273;SDS011;7738;49.532;11.156;2022-10-31T10:26:11;4.40;;;2.58;;
15273;SDS011;7738;49.532;11.156;2022-10-31T10:28:47;4.73;;;2.77;;
15273;SDS011;7738;49.532;11.156;2022-10-31T10:31:21;5.80;;;2.75;;
15273;SDS011;7738;49.532;11.156;2022-10-31T10:33:58;4.97;;;2.03;;
15273;SDS011;7738;49.532;11.156;2022-10-31T10:36:36;10.25;;;2.65;;
15273;SDS011;7738;49.532;11.156;2022-10-31T10:39:11;6.68;;;2.63;;
15273;SDS011;7738;49.532;11.156;2022-10-31T10:41:49;4.45;;;1.95;;
15273;SDS011;7738;49.532;11.156;2022-10-31T10:44:33;8.35;;;3.05;;
15273;SDS011;7738;49.532;11.156;2022-10-31T10:47:15;6.45;;;2.10;;
15273;SDS011;7738;49.532;11.156;2022-10-31T10:49:58;7.63;;;2.15;;
15273;SDS011;7738;49.532;11.156;2022-10-31T10:52:33;4.25;;;1.65;;
15273;SDS011;7738;49.532;11.156;2022-10-31T10:57:55;7.22;;;2.28;;
15273;SDS011;7738;49.532;11.156;2022-10-31T11:00:27;6.00;;;2.22;;
15273;SDS011;7738;49.532;11.156;2022-10-31T11:03:00;6.35;;;2.20;;
15273;SDS011;7738;49.532;11.156;2022-10-31T11:05:33;6.63;;;2.47;;
15273;SDS011;7738;49.532;11.156;2022-10-31T11:08:06;8.38;;;2.03;;
15273;SDS011;7738;49.532;11.156;2022-10-31T11:10:36;7.95;;;2.28;;
15273;SDS011;7738;49.532;11.156;2022-10-31T11:16:15;5.00;;;2.20;;
15273;SDS011;7738;49.532;11.156;2022-10-31T11:19:06;6.97;;;2.22;;
15273;SDS011;7738;49.532;11.156;2022-10-31T11:21:41;7.90;;;3.20;;
15273;SDS011;7738;49.532;11.156;2022-10-31T11:24:20;8.85;;;2.90;;
15273;SDS011;7738;49.532;11.156;2022-10-31T11:27:02;5.28;;;3.08;;
15273;SDS011;7738;49.532;11.156;2022-10-31T11:29:39;9.07;;;3.22;;
15273;SDS011;7738;49.532;11.156;2022-10-31T11:32:17;8.60;;;2.72;;
15273;SDS011;7738;49.532;11.156;2022-10-31T11:34:50;11.27;;;2.90;;
15273;SDS011;7738;49.532;11.156;2022-10-31T11:37:24;3.25;;;1.77;;
15273;SDS011;7738;49.532;11.156;2022-10-31T11:39:56;5.27;;;2.43;;
15273;SDS011;7738;49.532;11.156;2022-10-31T11:42:29;6.15;;;2.70;;
15273;SDS011;7738;49.532;11.156;2022-10-31T11:45:07;4.25;;;2.40;;
15273;SDS011;7738;49.532;11.156;2022-10-31T11:47:47;5.15;;;2.58;;
15273;SDS011;7738;49.532;11.156;2022-10-31T11:50:26;5.53;;;2.58;;
15273;SDS011;7738;49.532;11.156;2022-10-31T11:52:57;5.72;;;2.35;;
15273;SDS011;7738;49.532;11.156;2022-10-31T11:55:31;6.15;;;2.45;;
15273;SDS011;7738;49.532;11.156;2022-10-31T11:58:03;7.70;;;2.83;;
15273;SDS011;7738;49.532;11.156;2022-10-31T12:00:48;9.18;;;2.33;;
15273;SDS011;7738;49.532;11.156;2022-10-31T12:03:33;6.28;;;2.58;;
15273;SDS011;7738;49.532;11.156;2022-10-31T12:06:12;4.22;;;2.50;;
15273;SDS011;7738;49.532;11.156;2022-10-31T12:08:44;5.70;;;2.97;;
15273;SDS011;7738;49.532;11.156;2022-10-31T12:11:18;6.03;;;1.85;;
15273;SDS011;7738;49.532;11.156;2022-10-31T12:14:05;5.07;;;2.40;;
15273;SDS011;7738;49.532;11.156;2022-10-31T12:16:46;4.25;;;2.47;;
15273;SDS011;7738;49.532;11.156;2022-10-31T12:19:24;4.68;;;2.05;;
15273;SDS011;7738;49.532;11.156;2022-10-31T12:22:05;6.03;;;2.05;;
15273;SDS011;7738;49.532;11.156;2022-10-31T12:24:40;2.95;;;1.50;;
15273;SDS011;7738;49.532;11.156;2022-10-31T12:27:20;5.53;;;1.38;;
15273;SDS011;7738;49.532;11.156;2022-10-31T12:30:02;3.47;;;1.08;;
15273;SDS011;7738;49.532;11.156;2022-10-31T12:32:48;4.28;;;1.23;;
15273;SDS011;7738;49.532;11.156;2022-10-31T12:35:43;8.27;;;1.58;;
15273;SDS011;7738;49.532;11.156;2022-10-31T12:38:30;3.50;;;1.35;;
15273;SDS011;7738;49.532;11.156;2022-10-31T12:41:15;4.65;;;1.77;;
15273;SDS011;7738;49.532;11.156;2022-10-31T12:43:56;9.23;;;1.52;;
15273;SDS011;7738;49.532;11.156;2022-10-31T12:46:37;2.90;;;1.00;;
15273;SDS011;7738;49.532;11.156;2022-10-31T12:49:35;5.32;;;1.33;;
15273;SDS011;7738;49.532;11.156;2022-10-31T12:52:19;7.70;;;1.00;;
15273;SDS011;7738;49.532;11.156;2022-10-31T12:55:06;3.85;;;1.35;;
15273;SDS011;7738;49.532;11.156;2022-10-31T12:57:45;6.22;;;1.25;;
15273;SDS011;7738;49.532;11.156;2022-10-31T13:00:19;4.95;;;1.27;;
15273;SDS011;7738;49.532;11.156;2022-10-31T13:02:56;3.67;;;1.45;;
15273;SDS011;7738;49.532;11.156;2022-10-31T13:05:29;4.97;;;1.08;;
15273;SDS011;7738;49.532;11.156;2022-10-31T13:08:05;3.97;;;1.33;;
15273;SDS011;7738;49.532;11.156;2022-10-31T13:10:37;5.25;;;1.05;;
15273;SDS011;7738;49.532;11.156;2022-10-31T13:13:13;5.20;;;1.15;;
15273;SDS011;7738;49.532;11.156;2022-10-31T13:15:48;6.93;;;1.20;;
15273;SDS011;7738;49.532;11.156;2022-10-31T13:18:23;3.47;;;0.75;;
15273;SDS011;7738;49.532;11.156;2022-10-31T13:20:57;3.88;;;1.17;;
15273;SDS011;7738;49.532;11.156;2022-10-31T13:23:34;3.63;;;1.00;;
15273;SDS011;7738;49.532;11.156;2022-10-31T13:26:22;8.93;;;2.20;;
15273;SDS011;7738;49.532;11.156;2022-10-31T13:29:00;3.72;;;1.30;;
15273;SDS011;7738;49.532;11.156;2022-10-31T13:31:39;4.32;;;0.73;;
15273;SDS011;7738;49.532;11.156;2022-10-31T13:34:14;9.77;;;1.95;;
15273;SDS011;7738;49.532;11.156;2022-10-31T13:36:53;2.67;;;1.02;;
15273;SDS011;7738;49.532;11.156;2022-10-31T13:39:35;6.22;;;1.33;;
15273;SDS011;7738;49.532;11.156;2022-10-31T13:42:15;6.78;;;1.13;;
15273;SDS011;7738;49.532;11.156;2022-10-31T13:44:51;3.50;;;1.05;;
15273;SDS011;7738;49.532;11.156;2022-10-31T13:47:22;2.15;;;0.95;;
15273;SDS011;7738;49.532;11.156;2022-10-31T13:50:05;5.40;;;1.00;;
15273;SDS011;7738;49.532;11.156;2022-10-31T13:52:48;9.50;;;2.40;;
15273;SDS011;7738;49.532;11.156;2022-10-31T13:55:37;3.65;;;0.80;;
15273;SDS011;7738;49.532;11.156;2022-10-31T13:58:26;3.80;;;1.30;;
15273;SDS011;7738;49.532;11.156;2022-10-31T14:03:55;3.15;;;1.00;;
15273;SDS011;7738;49.532;11.156;2022-10-31T14:06:39;3.35;;;1.25;;
15273;SDS011;7738;49.532;11.156;2022-10-31T14:09:20;3.53;;;1.38;;
15273;SDS011;7738;49.532;11.156;2022-10-31T14:11:53;2.97;;;1.20;;
15273;SDS011;7738;49.532;11.156;2022-10-31T14:14:29;6.55;;;1.25;;
15273;SDS011;7738;49.532;11.156;2022-10-31T14:17:02;2.85;;;1.30;;
15273;SDS011;7738;49.532;11.156;2022-10-31T14:19:32;3.97;;;1.00;;
15273;SDS011;7738;49.532;11.156;2022-10-31T14:22:03;6.32;;;0.88;;
15273;SDS011;7738;49.532;11.156;2022-10-31T14:24:34;3.92;;;0.63;;
15273;SDS011;7738;49.532;11.156;2022-10-31T14:30:16;3.13;;;0.77;;
15273;SDS011;7738;49.532;11.156;2022-10-31T14:32:49;4.88;;;1.08;;
15273;SDS011;7738;49.532;11.156;2022-10-31T14:35:23;3.53;;;0.85;;
15273;SDS011;7738;49.532;11.156;2022-10-31T14:38:08;6.30;;;1.35;;
15273;SDS011;7738;49.532;11.156;2022-10-31T14:40:55;4.18;;;0.60;;
15273;SDS011;7738;49.532;11.156;2022-10-31T14:43:39;3.42;;;0.80;;
15273;SDS011;7738;49.532;11.156;2022-10-31T14:46:33;5.78;;;1.60;;
15273;SDS011;7738;49.532;11.156;2022-10-31T14:49:24;4.13;;;0.55;;
15273;SDS011;7738;49.532;11.156;2022-10-31T14:52:02;5.03;;;1.00;;
15273;SDS011;7738;49.532;11.156;2022-10-31T14:54:37;3.10;;;0.90;;
15273;SDS011;7738;49.532;11.156;2022-10-31T14:57:13;5.15;;;1.25;;
15273;SDS011;7738;49.532;11.156;2022-10-31T14:59:48;5.85;;;1.27;;
15273;SDS011;7738;49.532;11.156;2022-10-31T15:02:31;3.38;;;1.00;;
15273;SDS011;7738;49.532;11.156;2022-10-31T15:05:06;5.63;;;1.58;;
15273;SDS011;7738;49.532;11.156;2022-10-31T15:07:48;5.03;;;1.30;;
15273;SDS011;7738;49.532;11.156;2022-10-31T15:10:19;3.67;;;1.02;;
15273;SDS011;7738;49.532;11.156;2022-10-31T15:12:51;5.10;;;1.50;;
15273;SDS011;7738;49.532;11.156;2022-10-31T15:15:22;4.22;;;1.30;;
15273;SDS011;7738;49.532;11.156;2022-10-31T15:17:57;9.13;;;1.42;;
15273;SDS011;7738;49.532;11.156;2022-10-31T15:20:29;9.07;;;1.50;;
15273;SDS011;7738;49.532;11.156;2022-10-31T15:23:14;6.03;;;1.48;;
15273;SDS011;7738;49.532;11.156;2022-10-31T15:25:49;6.15;;;1.30;;
15273;SDS011;7738;49.532;11.156;2022-10-31T15:28:21;5.72;;;1.73;;
15273;SDS011;7738;49.532;11.156;2022-10-31T15:30:53;4.60;;;2.08;;
15273;SDS011;7738;49.532;11.156;2022-10-31T15:33:27;4.22;;;1.92;;
15273;SDS011;7738;49.532;11.156;2022-10-31T15:36:05;7.10;;;2.05;;
15273;SDS011;7738;49.532;11.156;2022-10-31T15:38:35;7.65;;;1.27;;
15273;SDS011;7738;49.532;11.156;2022-10-31T15:41:06;3.60;;;1.10;;
15273;SDS011;7738;49.532;11.156;2022-10-31T15:43:51;3.95;;;1.08;;
15273;SDS011;7738;49.532;11.156;2022-10-31T15:46:21;4.10;;;1.13;;
15273;SDS011;7738;49.532;11.156;2022-10-31T15:48:56;2.88;;;1.10;;
15273;SDS011;7738;49.532;11.156;2022-10-31T15:51:27;9.90;;;1.38;;
15273;SDS011;7738;49.532;11.156;2022-10-31T15:53:59;5.03;;;2.40;;
15273;SDS011;7738;49.532;11.156;2022-10-31T15:56:30;5.93;;;1.40;;
15273;SDS011;7738;49.532;11.156;2022-10-31T15:59:01;3.38;;;1.45;;
15273;SDS011;7738;49.532;11.156;2022-10-31T16:01:33;6.00;;;1.77;;
15273;SDS011;7738;49.532;11.156;2022-10-31T16:04:19;10.05;;;2.97;;
15273;SDS011;7738;49.532;11.156;2022-10-31T16:07:01;8.43;;;2.75;;
15273;SDS011;7738;49.532;11.156;2022-10-31T16:09:32;6.30;;;2.15;;